www.cux-wetter.de
Wetterdaten: Samstag, 17.05.2008
Datum Zeit Temp. A. Feuchte A. Luftdruck Regen Wind Richtung Richtung Sonnenschein Solar Taupunkt Windchill Windben
17.05.2008 00:02 12,5 C 78 % 1006,5 hPa 0,0 l/m 12,0 km/h (2 Bft) N-NO 20 0 min 0 W/m 8,8 C 9,4 C 12,0 km/h (2 Bft)
17.05.2008 00:07 12,5 C 78 % 1006,5 hPa 0,0 l/m 20,8 km/h (4 Bft) N 5 0 min 0 W/m 8,8 C 6,3 C 20,8 km/h (4 Bft)
17.05.2008 00:12 12,5 C 78 % 1006,5 hPa 0,0 l/m 13,6 km/h (3 Bft) N-NO 15 0 min 0 W/m 8,8 C 8,7 C 13,6 km/h (3 Bft)
17.05.2008 00:17 12,5 C 78 % 1005,5 hPa 0,0 l/m 14,8 km/h (3 Bft) N-NO 30 0 min 0 W/m 8,8 C 8,2 C 14,8 km/h (3 Bft)
17.05.2008 00:22 12,6 C 78 % 1006,5 hPa 0,0 l/m 14,3 km/h (3 Bft) N-NO 25 0 min 0 W/m 8,9 C 8,6 C 14,3 km/h (3 Bft)
17.05.2008 00:27 12,6 C 78 % 1006,5 hPa 0,0 l/m 11,3 km/h (2 Bft) N-NO 15 0 min 0 W/m 8,9 C 9,8 C 11,3 km/h (2 Bft)
17.05.2008 00:32 12,7 C 78 % 1006,5 hPa 0,0 l/m 10,6 km/h (2 Bft) N-NO 20 0 min 0 W/m 9,0 C 10,3 C 10,6 km/h (2 Bft)
17.05.2008 00:37 12,8 C 78 % 1006,5 hPa 0,0 l/m 14,3 km/h (3 Bft) NO 35 0 min 0 W/m 9,1 C 8,8 C 14,3 km/h (3 Bft)
17.05.2008 00:42 12,9 C 78 % 1005,5 hPa 0,0 l/m 9,2 km/h (2 Bft) N-NO 25 0 min 0 W/m 9,2 C 11,2 C 9,2 km/h (2 Bft)
17.05.2008 00:47 12,9 C 77 % 1005,5 hPa 0,0 l/m 13,9 km/h (3 Bft) NO 35 0 min 0 W/m 9,0 C 9,1 C 13,9 km/h (3 Bft)
17.05.2008 00:52 13,0 C 77 % 1005,5 hPa 0,0 l/m 9,8 km/h (2 Bft) N-NO 25 0 min 0 W/m 9,1 C 11,0 C 9,8 km/h (2 Bft)
17.05.2008 00:57 13,0 C 77 % 1005,5 hPa 0,0 l/m 9,6 km/h (2 Bft) N-NO 25 0 min 0 W/m 9,1 C 11,1 C 9,6 km/h (2 Bft)
17.05.2008 01:02 13,0 C 77 % 1005,5 hPa 0,0 l/m 11,5 km/h (2 Bft) N-NO 25 0 min 0 W/m 9,1 C 10,2 C 11,5 km/h (2 Bft)
17.05.2008 01:07 13,0 C 76 % 1006,5 hPa 0,0 l/m 12,8 km/h (3 Bft) N-NO 30 0 min 0 W/m 8,9 C 9,6 C 12,8 km/h (3 Bft)
17.05.2008 01:12 13,0 C 76 % 1006,5 hPa 0,0 l/m 16,1 km/h (3 Bft) N 5 0 min 0 W/m 8,9 C 8,4 C 16,1 km/h (3 Bft)
17.05.2008 01:17 13,0 C 76 % 1006,5 hPa 0,0 l/m 12,7 km/h (3 Bft) N-NO 25 0 min 0 W/m 8,9 C 9,7 C 12,7 km/h (3 Bft)
17.05.2008 01:22 12,9 C 75 % 1006,5 hPa 0,0 l/m 12,7 km/h (3 Bft) N 5 0 min 0 W/m 8,6 C 9,6 C 12,7 km/h (3 Bft)
17.05.2008 01:27 12,9 C 75 % 1006,5 hPa 0,0 l/m 14,4 km/h (3 Bft) N 5 0 min 0 W/m 8,6 C 8,9 C 14,4 km/h (3 Bft)
17.05.2008 01:32 12,8 C 75 % 1006,5 hPa 0,0 l/m 12,4 km/h (2 Bft) N-NO 25 0 min 0 W/m 8,5 C 9,6 C 12,4 km/h (2 Bft)
17.05.2008 01:37 12,8 C 75 % 1005,5 hPa 0,0 l/m 13,1 km/h (3 Bft) N-NO 15 0 min 0 W/m 8,5 C 9,3 C 13,1 km/h (3 Bft)
17.05.2008 01:42 12,6 C 75 % 1005,5 hPa 0,0 l/m 11,3 km/h (2 Bft) N-NO 15 0 min 0 W/m 8,3 C 9,8 C 11,3 km/h (2 Bft)
17.05.2008 01:47 12,5 C 75 % 1005,5 hPa 0,0 l/m 8,0 km/h (2 Bft) N 10 0 min 0 W/m 8,2 C 11,5 C 8,0 km/h (2 Bft)
17.05.2008 01:52 12,4 C 75 % 1005,5 hPa 0,0 l/m 10,6 km/h (2 Bft) N-NO 20 0 min 0 W/m 8,1 C 9,9 C 10,6 km/h (2 Bft)
17.05.2008 01:57 12,3 C 76 % 1005,5 hPa 0,0 l/m 9,6 km/h (2 Bft) N-NO 20 0 min 0 W/m 8,2 C 10,3 C 9,6 km/h (2 Bft)
17.05.2008 02:01 12,2 C 77 % 1005,5 hPa 0,0 l/m 9,2 km/h (2 Bft) N-NO 20 0 min 0 W/m 8,3 C 10,5 C 9,2 km/h (2 Bft)
17.05.2008 02:07 12,4 C 77 % 1005,5 hPa 0,0 l/m 4,9 km/h (1 Bft) N-NO 25 0 min 0 W/m 8,5 C 12,4 C 4,9 km/h (1 Bft)
17.05.2008 02:12 12,4 C 77 % 1005,5 hPa 0,0 l/m 14,1 km/h (3 Bft) N 5 0 min 0 W/m 8,5 C 8,4 C 14,1 km/h (3 Bft)
17.05.2008 02:17 12,6 C 77 % 1005,5 hPa 0,0 l/m 7,3 km/h (2 Bft) N-NO 25 0 min 0 W/m 8,7 C 12,0 C 7,3 km/h (2 Bft)
17.05.2008 02:22 12,6 C 77 % 1005,5 hPa 0,0 l/m 9,3 km/h (2 Bft) NO 35 0 min 0 W/m 8,7 C 10,8 C 9,3 km/h (2 Bft)
17.05.2008 02:27 12,7 C 77 % 1005,5 hPa 0,0 l/m 7,1 km/h (2 Bft) NO 40 0 min 0 W/m 8,8 C 12,3 C 7,1 km/h (2 Bft)
17.05.2008 02:32 12,8 C 76 % 1005,5 hPa 0,0 l/m 6,1 km/h (2 Bft) N 350 0 min 0 W/m 8,7 C 12,8 C 6,1 km/h (2 Bft)
17.05.2008 02:37 12,8 C 76 % 1005,5 hPa 0,0 l/m 5,2 km/h (1 Bft) N-NO 25 0 min 0 W/m 8,7 C 12,8 C 5,2 km/h (1 Bft)
17.05.2008 02:42 12,8 C 76 % 1005,5 hPa 0,0 l/m 4,1 km/h (1 Bft) N-NO 30 0 min 0 W/m 8,7 C 12,8 C 4,1 km/h (1 Bft)
17.05.2008 02:47 12,8 C 76 % 1005,5 hPa 0,0 l/m 6,1 km/h (2 Bft) NO 40 0 min 0 W/m 8,7 C 12,8 C 6,1 km/h (2 Bft)
17.05.2008 02:51 12,8 C 76 % 1005,5 hPa 0,0 l/m 4,8 km/h (1 Bft) N-NO 30 0 min 0 W/m 8,7 C 12,8 C 4,8 km/h (1 Bft)
17.05.2008 02:56 12,7 C 76 % 1005,5 hPa 0,0 l/m 8,6 km/h (2 Bft) N-NO 25 0 min 0 W/m 8,6 C 11,3 C 8,6 km/h (2 Bft)
17.05.2008 03:02 12,7 C 76 % 1005,5 hPa 0,0 l/m 6,7 km/h (2 Bft) N 5 0 min 0 W/m 8,6 C 12,5 C 6,7 km/h (2 Bft)
17.05.2008 03:07 12,5 C 76 % 1005,5 hPa 0,0 l/m 6,5 km/h (2 Bft) NO 35 0 min 0 W/m 8,4 C 12,5 C 6,5 km/h (2 Bft)
17.05.2008 03:12 12,5 C 76 % 1005,5 hPa 0,0 l/m 6,6 km/h (2 Bft) N-NO 15 0 min 0 W/m 8,4 C 12,4 C 6,6 km/h (2 Bft)
17.05.2008 03:17 12,5 C 75 % 1005,5 hPa 0,0 l/m 12,5 km/h (2 Bft) N-NO 30 0 min 0 W/m 8,2 C 9,2 C 12,5 km/h (2 Bft)
17.05.2008 03:22 12,6 C 75 % 1005,5 hPa 0,0 l/m 11,0 km/h (2 Bft) NO 35 0 min 0 W/m 8,3 C 10,0 C 11,0 km/h (2 Bft)
17.05.2008 03:27 12,5 C 74 % 1005,5 hPa 0,0 l/m 8,5 km/h (2 Bft) N-NO 30 0 min 0 W/m 8,0 C 11,2 C 8,5 km/h (2 Bft)
17.05.2008 03:32 12,5 C 74 % 1005,5 hPa 0,0 l/m 10,8 km/h (2 Bft) N-NO 15 0 min 0 W/m 8,0 C 10,0 C 10,8 km/h (2 Bft)
17.05.2008 03:36 12,4 C 74 % 1005,5 hPa 0,0 l/m 10,8 km/h (2 Bft) N-NO 15 0 min 0 W/m 7,9 C 9,8 C 10,8 km/h (2 Bft)
17.05.2008 03:42 12,4 C 74 % 1005,5 hPa 0,0 l/m 9,3 km/h (2 Bft) N-NO 25 0 min 0 W/m 7,9 C 10,6 C 9,3 km/h (2 Bft)
17.05.2008 03:47 12,4 C 74 % 1005,5 hPa 0,0 l/m 7,2 km/h (2 Bft) N-NO 15 0 min 0 W/m 7,9 C 11,9 C 7,2 km/h (2 Bft)
17.05.2008 03:52 12,4 C 74 % 1005,5 hPa 0,0 l/m 10,6 km/h (2 Bft) N-NO 15 0 min 0 W/m 7,9 C 9,9 C 10,6 km/h (2 Bft)
17.05.2008 03:57 12,4 C 74 % 1005,5 hPa 0,0 l/m 10,9 km/h (2 Bft) N 10 0 min 0 W/m 7,9 C 9,8 C 10,9 km/h (2 Bft)
17.05.2008 04:02 12,4 C 74 % 1005,5 hPa 0,0 l/m 10,9 km/h (2 Bft) N 10 0 min 0 W/m 7,9 C 9,8 C 10,9 km/h (2 Bft)
17.05.2008 04:07 12,4 C 73 % 1005,5 hPa 0,0 l/m 7,2 km/h (2 Bft) N-NW 330 0 min 0 W/m 7,7 C 11,9 C 7,2 km/h (2 Bft)
17.05.2008 04:12 12,4 C 74 % 1005,5 hPa 0,0 l/m 6,4 km/h (2 Bft) N 5 0 min 0 W/m 7,9 C 12,4 C 6,4 km/h (2 Bft)
17.05.2008 04:16 12,4 C 74 % 1005,5 hPa 0,0 l/m 6,6 km/h (2 Bft) N 360 0 min 0 W/m 7,9 C 12,3 C 6,6 km/h (2 Bft)
17.05.2008 04:22 12,5 C 74 % 1005,5 hPa 0,0 l/m 10,0 km/h (2 Bft) N 355 0 min 0 W/m 8,0 C 10,4 C 10,0 km/h (2 Bft)
17.05.2008 04:27 12,4 C 74 % 1005,5 hPa 0,0 l/m 6,9 km/h (2 Bft) N 360 0 min 0 W/m 7,9 C 12,1 C 6,9 km/h (2 Bft)
17.05.2008 04:32 12,4 C 74 % 1005,5 hPa 0,0 l/m 9,8 km/h (2 Bft) N-NO 15 0 min 0 W/m 7,9 C 10,4 C 9,8 km/h (2 Bft)
17.05.2008 04:37 12,4 C 75 % 1005,5 hPa 0,0 l/m 6,6 km/h (2 Bft) N-NO 15 0 min 0 W/m 8,1 C 12,3 C 6,6 km/h (2 Bft)
17.05.2008 04:42 12,4 C 75 % 1005,5 hPa 0,0 l/m 0,4 km/h (0 Bft) N-NO 30 0 min 0 W/m 8,1 C 12,4 C 0,4 km/h (0 Bft)
17.05.2008 04:47 12,7 C 75 % 1005,5 hPa 0,0 l/m 0,1 km/h (0 Bft) N 360 0 min 0 W/m 8,4 C 12,7 C 0,1 km/h (0 Bft)
17.05.2008 04:52 12,8 C 75 % 1005,5 hPa 0,0 l/m 0,0 km/h (0 Bft) O-SO 120 0 min 0 W/m 8,5 C 12,8 C 0,0 km/h (0 Bft)
17.05.2008 04:57 12,8 C 75 % 1005,5 hPa 0,0 l/m 0,2 km/h (0 Bft) O-SO 120 0 min 0 W/m 8,5 C 12,8 C 0,2 km/h (0 Bft)
17.05.2008 05:02 12,8 C 75 % 1005,5 hPa 0,0 l/m 5,9 km/h (2 Bft) O-NO 75 0 min 0 W/m 8,5 C 12,8 C 5,9 km/h (2 Bft)
17.05.2008 05:07 12,8 C 76 % 1005,5 hPa 0,0 l/m 0,0 km/h (0 Bft) NO 35 0 min 0 W/m 8,7 C 12,8 C 0,0 km/h (0 Bft)
17.05.2008 05:12 12,8 C 75 % 1005,5 hPa 0,0 l/m 0,0 km/h (0 Bft) NO 35 0 min 0 W/m 8,5 C 12,8 C 0,0 km/h (0 Bft)
17.05.2008 05:17 12,9 C 76 % 1005,5 hPa 0,0 l/m 0,2 km/h (0 Bft) SO 135 0 min 0 W/m 8,8 C 12,9 C 0,2 km/h (0 Bft)
17.05.2008 05:22 13,0 C 75 % 1005,5 hPa 0,0 l/m 0,0 km/h (0 Bft) S-SO 165 0 min 0 W/m 8,7 C 13,0 C 0,0 km/h (0 Bft)
17.05.2008 05:27 13,0 C 75 % 1005,5 hPa 0,0 l/m 0,0 km/h (0 Bft) S-SO 165 0 min 0 W/m 8,7 C 13,0 C 0,0 km/h (0 Bft)
17.05.2008 05:32 12,9 C 75 % 1005,5 hPa 0,0 l/m 0,0 km/h (0 Bft) NW 310 0 min 0 W/m 8,6 C 12,9 C 0,0 km/h (0 Bft)
17.05.2008 05:37 13,0 C 75 % 1005,5 hPa 0,0 l/m 0,0 km/h (0 Bft) W-SW 250 0 min 0 W/m 8,7 C 13,0 C 0,0 km/h (0 Bft)
17.05.2008 05:42 12,9 C 75 % 1005,5 hPa 0,0 l/m 0,0 km/h (0 Bft) W-SW 240 0 min 0 W/m 8,6 C 12,9 C 0,0 km/h (0 Bft)
17.05.2008 05:47 13,1 C 76 % 1005,5 hPa 0,0 l/m 0,0 km/h (0 Bft) S 190 0 min 0 W/m 9,0 C 13,1 C 0,0 km/h (0 Bft)
17.05.2008 05:52 13,1 C 76 % 1005,5 hPa 0,0 l/m 0,0 km/h (0 Bft) SO 125 0 min 0 W/m 9,0 C 13,1 C 0,0 km/h (0 Bft)
17.05.2008 05:57 13,2 C 75 % 1005,5 hPa 0,0 l/m 0,9 km/h (0 Bft) S-SO 160 0 min 0 W/m 8,9 C 13,2 C 0,9 km/h (0 Bft)
17.05.2008 06:02 13,2 C 75 % 1005,5 hPa 0,0 l/m 0,0 km/h (0 Bft) W-SW 240 0 min 0 W/m 8,9 C 13,2 C 0,0 km/h (0 Bft)
17.05.2008 06:07 13,2 C 75 % 1005,5 hPa 0,0 l/m 0,0 km/h (0 Bft) W-SW 240 0 min 0 W/m 8,9 C 13,2 C 0,0 km/h (0 Bft)
17.05.2008 06:12 13,3 C 75 % 1005,5 hPa 0,0 l/m 0,3 km/h (0 Bft) NW 320 0 min 0 W/m 9,0 C 13,3 C 0,3 km/h (0 Bft)
17.05.2008 06:17 13,3 C 75 % 1005,5 hPa 0,0 l/m 0,0 km/h (0 Bft) S-SW 205 0 min 0 W/m 9,0 C 13,3 C 0,0 km/h (0 Bft)
17.05.2008 06:22 13,2 C 75 % 1005,5 hPa 0,0 l/m 0,0 km/h (0 Bft) S 185 0 min 0 W/m 8,9 C 13,2 C 0,0 km/h (0 Bft)
17.05.2008 06:27 13,3 C 75 % 1005,5 hPa 0,0 l/m 0,1 km/h (0 Bft) S 190 0 min 0 W/m 9,0 C 13,3 C 0,1 km/h (0 Bft)
17.05.2008 06:32 13,4 C 75 % 1005,5 hPa 0,0 l/m 0,0 km/h (0 Bft) W 275 0 min 0 W/m 9,1 C 13,4 C 0,0 km/h (0 Bft)
17.05.2008 06:37 13,4 C 75 % 1005,5 hPa 0,0 l/m 0,0 km/h (0 Bft) W 275 0 min 0 W/m 9,1 C 13,4 C 0,0 km/h (0 Bft)
17.05.2008 06:42 13,4 C 75 % 1005,5 hPa 0,0 l/m 0,0 km/h (0 Bft) W 275 0 min 0 W/m 9,1 C 13,4 C 0,0 km/h (0 Bft)
17.05.2008 06:47 13,4 C 75 % 1005,5 hPa 0,0 l/m 0,0 km/h (0 Bft) W 275 0 min 0 W/m 9,1 C 13,4 C 0,0 km/h (0 Bft)
17.05.2008 06:51 13,4 C 75 % 1004,5 hPa 0,0 l/m 5,4 km/h (2 Bft) N 350 0 min 0 W/m 9,1 C 13,4 C 5,4 km/h (2 Bft)
17.05.2008 06:56 13,3 C 76 % 1004,5 hPa 0,0 l/m 15,0 km/h (3 Bft) N 5 0 min 0 W/m 9,2 C 9,1 C 15,0 km/h (3 Bft)
17.05.2008 07:02 13,2 C 76 % 1004,5 hPa 0,0 l/m 13,4 km/h (3 Bft) N 10 0 min 0 W/m 9,1 C 9,6 C 13,4 km/h (3 Bft)
17.05.2008 07:07 13,2 C 76 % 1004,5 hPa 0,0 l/m 8,9 km/h (2 Bft) N-NO 30 0 min 0 W/m 9,1 C 11,7 C 8,9 km/h (2 Bft)
17.05.2008 07:12 13,2 C 77 % 1004,5 hPa 0,0 l/m 9,4 km/h (2 Bft) N-NO 25 0 min 0 W/m 9,3 C 11,4 C 9,4 km/h (2 Bft)
17.05.2008 07:17 13,4 C 77 % 1004,5 hPa 0,0 l/m 11,2 km/h (2 Bft) N-NO 15 0 min 0 W/m 9,5 C 10,8 C 11,2 km/h (2 Bft)
17.05.2008 07:22 13,4 C 76 % 1004,5 hPa 0,0 l/m 11,6 km/h (2 Bft) N-NO 20 0 min 0 W/m 9,3 C 10,6 C 11,6 km/h (2 Bft)
17.05.2008 07:26 13,5 C 77 % 1004,5 hPa 0,0 l/m 8,6 km/h (2 Bft) N-NO 20 0 min 0 W/m 9,5 C 12,2 C 8,6 km/h (2 Bft)
17.05.2008 07:31 13,6 C 76 % 1004,5 hPa 0,0 l/m 10,4 km/h (2 Bft) N-NO 20 0 min 0 W/m 9,4 C 11,4 C 10,4 km/h (2 Bft)
17.05.2008 07:37 13,7 C 77 % 1004,5 hPa 0,0 l/m 8,1 km/h (2 Bft) N 360 0 min 0 W/m 9,7 C 12,7 C 8,1 km/h (2 Bft)
17.05.2008 07:42 13,7 C 77 % 1004,5 hPa 0,0 l/m 8,7 km/h (2 Bft) N 5 0 min 0 W/m 9,7 C 12,3 C 8,7 km/h (2 Bft)
17.05.2008 07:47 13,8 C 77 % 1004,5 hPa 0,0 l/m 8,5 km/h (2 Bft) N 360 0 min 0 W/m 9,8 C 12,6 C 8,5 km/h (2 Bft)
17.05.2008 07:52 13,8 C 77 % 1004,5 hPa 0,0 l/m 6,5 km/h (2 Bft) N 10 0 min 0 W/m 9,8 C 13,8 C 6,5 km/h (2 Bft)
17.05.2008 07:57 13,8 C 77 % 1004,5 hPa 0,0 l/m 6,1 km/h (2 Bft) N 10 0 min 0 W/m 9,8 C 13,8 C 6,1 km/h (2 Bft)
17.05.2008 08:02 14,0 C 76 % 1004,5 hPa 0,0 l/m 2,2 km/h (1 Bft) N-NW 340 0 min 0 W/m 9,8 C 14,0 C 2,2 km/h (1 Bft)
17.05.2008 08:06 14,2 C 75 % 1004,5 hPa 0,0 l/m 0,0 km/h (0 Bft) N-NW 330 0 min 0 W/m 9,8 C 14,2 C 0,0 km/h (0 Bft)
17.05.2008 08:11 14,3 C 75 % 1004,5 hPa 0,0 l/m 0,0 km/h (0 Bft) N-NW 340 0 min 0 W/m 9,9 C 14,3 C 0,0 km/h (0 Bft)
17.05.2008 08:17 14,5 C 75 % 1004,5 hPa 0,0 l/m 0,6 km/h (0 Bft) N-NW 345 0 min 0 W/m 10,1 C 14,5 C 0,6 km/h (0 Bft)
17.05.2008 08:22 14,6 C 75 % 1005,5 hPa 0,0 l/m 4,5 km/h (1 Bft) SO 125 0 min 0 W/m 10,2 C 14,6 C 4,5 km/h (1 Bft)
17.05.2008 08:27 14,4 C 74 % 1005,5 hPa 0,0 l/m 10,7 km/h (2 Bft) O-NO 70 0 min 0 W/m 9,8 C 12,1 C 10,7 km/h (2 Bft)
17.05.2008 08:32 14,1 C 73 % 1005,5 hPa 0,0 l/m 10,6 km/h (2 Bft) O 100 0 min 0 W/m 9,3 C 11,8 C 10,6 km/h (2 Bft)
17.05.2008 08:37 13,9 C 73 % 1005,5 hPa 0,0 l/m 11,2 km/h (2 Bft) NO 40 0 min 0 W/m 9,1 C 11,3 C 11,2 km/h (2 Bft)
17.05.2008 08:42 13,7 C 73 % 1005,5 hPa 0,0 l/m 11,7 km/h (2 Bft) NO 50 0 min 0 W/m 8,9 C 10,9 C 11,7 km/h (2 Bft)
17.05.2008 08:47 13,5 C 73 % 1005,5 hPa 0,0 l/m 12,0 km/h (2 Bft) NO 55 0 min 0 W/m 8,8 C 10,5 C 12,0 km/h (2 Bft)
17.05.2008 08:52 13,6 C 74 % 1005,5 hPa 0,0 l/m 10,0 km/h (2 Bft) O-NO 60 0 min 0 W/m 9,1 C 11,6 C 10,0 km/h (2 Bft)
17.05.2008 08:57 13,5 C 74 % 1005,5 hPa 0,0 l/m 7,2 km/h (2 Bft) O 95 0 min 0 W/m 9,0 C 13,0 C 7,2 km/h (2 Bft)
17.05.2008 09:02 13,6 C 73 % 1005,5 hPa 0,0 l/m 13,8 km/h (3 Bft) N 5 0 min 0 W/m 8,9 C 9,9 C 13,8 km/h (3 Bft)
17.05.2008 09:07 13,6 C 72 % 1005,5 hPa 0,0 l/m 10,5 km/h (2 Bft) N-NO 30 0 min 0 W/m 8,6 C 11,3 C 10,5 km/h (2 Bft)
17.05.2008 09:12 13,7 C 72 % 1005,5 hPa 0,0 l/m 10,8 km/h (2 Bft) NO 55 0 min 0 W/m 8,7 C 11,3 C 10,8 km/h (2 Bft)
17.05.2008 09:17 13,6 C 71 % 1005,5 hPa 0,0 l/m 17,1 km/h (3 Bft) N-NO 15 0 min 0 W/m 8,4 C 8,8 C 17,1 km/h (3 Bft)
17.05.2008 09:22 13,6 C 72 % 1005,5 hPa 0,0 l/m 6,7 km/h (2 Bft) N 5 0 min 0 W/m 8,6 C 13,4 C 6,7 km/h (2 Bft)
17.05.2008 09:27 13,7 C 71 % 1005,5 hPa 0,0 l/m 10,3 km/h (2 Bft) NO 45 0 min 0 W/m 8,5 C 11,5 C 10,3 km/h (2 Bft)
17.05.2008 09:32 13,8 C 72 % 1005,5 hPa 0,0 l/m 14,9 km/h (3 Bft) NO 40 0 min 0 W/m 8,8 C 9,8 C 14,9 km/h (3 Bft)
17.05.2008 09:37 14,0 C 71 % 1005,5 hPa 0,0 l/m 10,6 km/h (2 Bft) NO 35 0 min 0 W/m 8,8 C 11,7 C 10,6 km/h (2 Bft)
17.05.2008 09:42 14,3 C 71 % 1005,5 hPa 0,0 l/m 9,5 km/h (2 Bft) NO 40 0 min 0 W/m 9,1 C 12,6 C 9,5 km/h (2 Bft)
17.05.2008 09:47 14,3 C 70 % 1005,5 hPa 0,0 l/m 10,5 km/h (2 Bft) O-NO 65 0 min 0 W/m 8,9 C 12,1 C 10,5 km/h (2 Bft)
17.05.2008 09:52 14,2 C 69 % 1005,5 hPa 0,0 l/m 8,9 km/h (2 Bft) O-NO 60 0 min 0 W/m 8,6 C 12,8 C 8,9 km/h (2 Bft)
17.05.2008 09:57 14,0 C 70 % 1005,5 hPa 0,0 l/m 11,6 km/h (2 Bft) NO 45 0 min 0 W/m 8,6 C 11,3 C 11,6 km/h (2 Bft)
17.05.2008 10:01 13,9 C 69 % 1005,5 hPa 0,0 l/m 12,5 km/h (2 Bft) NO 50 0 min 0 W/m 8,3 C 10,8 C 12,5 km/h (2 Bft)
17.05.2008 10:07 13,9 C 69 % 1005,5 hPa 0,0 l/m 12,5 km/h (2 Bft) N-NO 20 0 min 0 W/m 8,3 C 10,8 C 12,5 km/h (2 Bft)
17.05.2008 10:12 13,7 C 71 % 1005,5 hPa 0,0 l/m 9,0 km/h (2 Bft) O-NO 70 0 min 0 W/m 8,5 C 12,2 C 9,0 km/h (2 Bft)
17.05.2008 10:17 13,8 C 71 % 1005,5 hPa 0,0 l/m 9,6 km/h (2 Bft) N-NO 20 0 min 0 W/m 8,6 C 12,0 C 9,6 km/h (2 Bft)
17.05.2008 10:22 13,8 C 70 % 1005,5 hPa 0,0 l/m 9,6 km/h (2 Bft) N-NO 25 0 min 0 W/m 8,4 C 12,0 C 9,6 km/h (2 Bft)
17.05.2008 10:27 13,6 C 71 % 1005,5 hPa 0,0 l/m 11,8 km/h (2 Bft) NO 50 0 min 0 W/m 8,4 C 10,7 C 11,8 km/h (2 Bft)
17.05.2008 10:32 13,6 C 71 % 1005,5 hPa 0,0 l/m 9,9 km/h (2 Bft) O 80 0 min 0 W/m 8,4 C 11,6 C 9,9 km/h (2 Bft)
17.05.2008 10:36 13,6 C 71 % 1005,5 hPa 0,0 l/m 10,5 km/h (2 Bft) NO 50 0 min 0 W/m 8,4 C 11,3 C 10,5 km/h (2 Bft)
17.05.2008 10:42 13,4 C 71 % 1005,5 hPa 0,0 l/m 10,7 km/h (2 Bft) NO 40 0 min 0 W/m 8,3 C 11,0 C 10,7 km/h (2 Bft)
17.05.2008 10:47 13,4 C 71 % 1005,5 hPa 0,0 l/m 13,0 km/h (3 Bft) NO 45 0 min 0 W/m 8,3 C 10,0 C 13,0 km/h (3 Bft)
17.05.2008 10:52 13,4 C 71 % 1005,5 hPa 0,0 l/m 13,4 km/h (3 Bft) NO 55 0 min 0 W/m 8,3 C 9,9 C 13,4 km/h (3 Bft)
17.05.2008 10:57 13,2 C 71 % 1005,5 hPa 0,0 l/m 8,5 km/h (2 Bft) NO 40 0 min 0 W/m 8,1 C 11,9 C 8,5 km/h (2 Bft)
17.05.2008 11:02 13,3 C 71 % 1005,5 hPa 0,0 l/m 15,1 km/h (3 Bft) O-NO 60 0 min 0 W/m 8,2 C 9,1 C 15,1 km/h (3 Bft)
17.05.2008 11:06 13,3 C 71 % 1005,5 hPa 0,0 l/m 8,9 km/h (2 Bft) NO 45 0 min 0 W/m 8,2 C 11,8 C 8,9 km/h (2 Bft)
17.05.2008 11:12 13,2 C 70 % 1005,5 hPa 0,0 l/m 11,7 km/h (2 Bft) NO 50 0 min 0 W/m 7,9 C 10,3 C 11,7 km/h (2 Bft)
17.05.2008 11:17 13,2 C 70 % 1005,5 hPa 0,0 l/m 11,3 km/h (2 Bft) NO 35 0 min 0 W/m 7,9 C 10,5 C 11,3 km/h (2 Bft)
17.05.2008 11:22 13,4 C 71 % 1005,5 hPa 0,0 l/m 6,7 km/h (2 Bft) N-NW 340 0 min 0 W/m 8,3 C 13,2 C 6,7 km/h (2 Bft)
17.05.2008 11:27 13,4 C 70 % 1005,5 hPa 0,0 l/m 11,1 km/h (2 Bft) NO 40 0 min 0 W/m 8,0 C 10,8 C 11,1 km/h (2 Bft)
17.05.2008 11:32 13,5 C 71 % 1005,5 hPa 0,0 l/m 11,0 km/h (2 Bft) N-NO 25 0 min 0 W/m 8,3 C 11,0 C 11,0 km/h (2 Bft)
17.05.2008 11:37 13,4 C 71 % 1005,5 hPa 0,0 l/m 6,2 km/h (2 Bft) NO 45 0 min 0 W/m 8,3 C 13,4 C 6,2 km/h (2 Bft)
17.05.2008 11:42 13,3 C 71 % 1005,5 hPa 0,0 l/m 9,0 km/h (2 Bft) NO 50 0 min 0 W/m 8,2 C 11,8 C 9,0 km/h (2 Bft)
17.05.2008 11:47 13,2 C 72 % 1005,5 hPa 0,0 l/m 8,7 km/h (2 Bft) N-NO 30 0 min 0 W/m 8,3 C 11,8 C 8,7 km/h (2 Bft)
17.05.2008 11:52 13,2 C 73 % 1005,5 hPa 0,0 l/m 8,4 km/h (2 Bft) N-NO 25 0 min 0 W/m 8,5 C 12,0 C 8,4 km/h (2 Bft)
17.05.2008 11:57 13,2 C 73 % 1005,5 hPa 0,3 l/m 6,9 km/h (2 Bft) NO 40 0 min 0 W/m 8,5 C 12,9 C 6,9 km/h (2 Bft)
17.05.2008 12:02 13,0 C 73 % 1005,5 hPa 0,0 l/m 11,8 km/h (2 Bft) N-NW 335 0 min 0 W/m 8,3 C 10,1 C 11,8 km/h (2 Bft)
17.05.2008 12:07 12,7 C 75 % 1005,5 hPa 0,0 l/m 7,8 km/h (2 Bft) N-NO 25 0 min 0 W/m 8,4 C 11,8 C 7,8 km/h (2 Bft)
17.05.2008 12:12 12,8 C 76 % 1005,5 hPa 0,3 l/m 7,9 km/h (2 Bft) NO 35 0 min 0 W/m 8,7 C 11,9 C 7,9 km/h (2 Bft)
17.05.2008 12:17 12,8 C 77 % 1005,5 hPa 0,0 l/m 11,0 km/h (2 Bft) NO 55 0 min 0 W/m 8,9 C 10,2 C 11,0 km/h (2 Bft)
17.05.2008 12:22 12,9 C 78 % 1005,5 hPa 0,3 l/m 6,8 km/h (2 Bft) NO 35 0 min 0 W/m 9,2 C 12,7 C 6,8 km/h (2 Bft)
17.05.2008 12:27 13,2 C 79 % 1005,5 hPa 0,0 l/m 7,4 km/h (2 Bft) N-NO 25 0 min 0 W/m 9,6 C 12,6 C 7,4 km/h (2 Bft)
17.05.2008 12:32 13,3 C 79 % 1005,5 hPa 0,0 l/m 14,2 km/h (3 Bft) N 5 0 min 0 W/m 9,7 C 9,4 C 14,2 km/h (3 Bft)
17.05.2008 12:37 13,4 C 78 % 1005,5 hPa 0,0 l/m 16,7 km/h (3 Bft) N-NO 30 0 min 0 W/m 9,6 C 8,7 C 16,7 km/h (3 Bft)
17.05.2008 12:42 13,4 C 78 % 1005,5 hPa 0,0 l/m 14,6 km/h (3 Bft) NO 40 0 min 0 W/m 9,6 C 9,4 C 14,6 km/h (3 Bft)
17.05.2008 12:47 13,6 C 78 % 1005,5 hPa 0,3 l/m 10,6 km/h (2 Bft) NO 40 0 min 0 W/m 9,8 C 11,3 C 10,6 km/h (2 Bft)
17.05.2008 12:52 13,8 C 77 % 1005,5 hPa 0,0 l/m 7,3 km/h (2 Bft) N-NO 25 0 min 0 W/m 9,8 C 13,3 C 7,3 km/h (2 Bft)
17.05.2008 12:56 13,8 C 77 % 1005,5 hPa 0,0 l/m 8,5 km/h (2 Bft) NO 45 0 min 0 W/m 9,8 C 12,6 C 8,5 km/h (2 Bft)
17.05.2008 13:02 13,7 C 76 % 1005,5 hPa 0,0 l/m 7,8 km/h (2 Bft) NO 35 0 min 0 W/m 9,5 C 12,9 C 7,8 km/h (2 Bft)
17.05.2008 13:07 13,6 C 76 % 1005,5 hPa 0,0 l/m 10,1 km/h (2 Bft) N-NO 25 0 min 0 W/m 9,4 C 11,5 C 10,1 km/h (2 Bft)
17.05.2008 13:12 13,6 C 76 % 1005,5 hPa 0,0 l/m 8,9 km/h (2 Bft) NO 50 0 min 0 W/m 9,4 C 12,1 C 8,9 km/h (2 Bft)
17.05.2008 13:17 13,6 C 77 % 1005,5 hPa 0,0 l/m 8,5 km/h (2 Bft) NO 35 0 min 0 W/m 9,6 C 12,4 C 8,5 km/h (2 Bft)
17.05.2008 13:22 13,6 C 77 % 1005,5 hPa 0,0 l/m 9,5 km/h (2 Bft) N-NO 15 0 min 0 W/m 9,6 C 11,8 C 9,5 km/h (2 Bft)
17.05.2008 13:26 13,6 C 77 % 1005,5 hPa 0,0 l/m 7,2 km/h (2 Bft) N-NO 20 0 min 0 W/m 9,6 C 13,1 C 7,2 km/h (2 Bft)
17.05.2008 13:32 13,5 C 77 % 1005,5 hPa 0,0 l/m 7,8 km/h (2 Bft) NO 35 0 min 0 W/m 9,5 C 12,6 C 7,8 km/h (2 Bft)
17.05.2008 13:37 13,4 C 76 % 1005,5 hPa 0,0 l/m 13,1 km/h (3 Bft) N-NO 20 0 min 0 W/m 9,3 C 10,0 C 13,1 km/h (3 Bft)
17.05.2008 13:42 13,0 C 76 % 1005,5 hPa 0,0 l/m 13,7 km/h (3 Bft) NO 35 0 min 0 W/m 8,9 C 9,3 C 13,7 km/h (3 Bft)
17.05.2008 13:47 12,9 C 77 % 1005,5 hPa 0,0 l/m 10,8 km/h (2 Bft) N-NO 15 0 min 0 W/m 9,0 C 10,4 C 10,8 km/h (2 Bft)
17.05.2008 13:52 12,9 C 78 % 1005,5 hPa 0,0 l/m 13,6 km/h (3 Bft) NO 45 0 min 0 W/m 9,2 C 9,2 C 13,6 km/h (3 Bft)
17.05.2008 13:57 12,8 C 77 % 1005,5 hPa 0,0 l/m 17,5 km/h (3 Bft) O-NO 60 0 min 0 W/m 8,9 C 7,7 C 17,5 km/h (3 Bft)
17.05.2008 14:02 12,8 C 78 % 1005,5 hPa 0,0 l/m 17,5 km/h (3 Bft) N-NO 30 0 min 0 W/m 9,1 C 7,7 C 17,5 km/h (3 Bft)
17.05.2008 14:07 12,7 C 77 % 1005,5 hPa 0,0 l/m 16,6 km/h (3 Bft) N-NO 15 0 min 0 W/m 8,8 C 7,8 C 16,6 km/h (3 Bft)
17.05.2008 14:12 12,8 C 77 % 1005,5 hPa 0,3 l/m 16,4 km/h (3 Bft) N-NO 20 0 min 0 W/m 8,9 C 8,0 C 16,4 km/h (3 Bft)
17.05.2008 14:17 12,8 C 76 % 1005,5 hPa 0,0 l/m 13,8 km/h (3 Bft) N-NO 20 0 min 0 W/m 8,7 C 9,0 C 13,8 km/h (3 Bft)
17.05.2008 14:22 13,0 C 76 % 1005,5 hPa 0,0 l/m 17,4 km/h (3 Bft) N-NO 25 0 min 0 W/m 8,9 C 7,9 C 17,4 km/h (3 Bft)
17.05.2008 14:27 13,0 C 76 % 1005,5 hPa 0,0 l/m 17,9 km/h (3 Bft) NO 35 0 min 0 W/m 8,9 C 7,8 C 17,9 km/h (3 Bft)
17.05.2008 14:32 12,8 C 75 % 1005,5 hPa 0,0 l/m 17,1 km/h (3 Bft) NO 35 0 min 0 W/m 8,5 C 7,8 C 17,1 km/h (3 Bft)
17.05.2008 14:37 12,5 C 75 % 1005,5 hPa 0,0 l/m 16,0 km/h (3 Bft) NO 35 0 min 0 W/m 8,2 C 7,8 C 16,0 km/h (3 Bft)
17.05.2008 14:42 12,5 C 76 % 1005,5 hPa 0,0 l/m 9,2 km/h (2 Bft) N-NO 25 0 min 0 W/m 8,4 C 10,8 C 9,2 km/h (2 Bft)
17.05.2008 14:47 12,5 C 77 % 1005,5 hPa 0,0 l/m 14,0 km/h (3 Bft) N-NO 30 0 min 0 W/m 8,6 C 8,5 C 14,0 km/h (3 Bft)
17.05.2008 14:52 12,6 C 75 % 1005,5 hPa 0,0 l/m 19,5 km/h (3 Bft) NO 35 0 min 0 W/m 8,3 C 6,8 C 19,5 km/h (3 Bft)
17.05.2008 14:56 12,5 C 75 % 1005,5 hPa 0,0 l/m 13,2 km/h (3 Bft) N-NO 25 0 min 0 W/m 8,2 C 8,9 C 13,2 km/h (3 Bft)
17.05.2008 15:02 12,5 C 75 % 1005,5 hPa 0,0 l/m 16,3 km/h (3 Bft) NO 35 0 min 0 W/m 8,2 C 7,7 C 16,3 km/h (3 Bft)
17.05.2008 15:07 12,5 C 74 % 1005,5 hPa 0,0 l/m 18,1 km/h (3 Bft) N-NO 25 0 min 0 W/m 8,0 C 7,1 C 18,1 km/h (3 Bft)
17.05.2008 15:12 12,6 C 74 % 1005,5 hPa 0,0 l/m 14,0 km/h (3 Bft) NO 40 0 min 0 W/m 8,1 C 8,7 C 14,0 km/h (3 Bft)
17.05.2008 15:17 12,6 C 74 % 1005,5 hPa 0,0 l/m 15,4 km/h (3 Bft) N 10 0 min 0 W/m 8,1 C 8,1 C 15,4 km/h (3 Bft)
17.05.2008 15:22 12,5 C 75 % 1005,5 hPa 0,0 l/m 16,7 km/h (3 Bft) N-NO 25 0 min 0 W/m 8,2 C 7,6 C 16,7 km/h (3 Bft)
17.05.2008 15:26 12,4 C 74 % 1005,5 hPa 0,0 l/m 14,4 km/h (3 Bft) NO 50 0 min 0 W/m 7,9 C 8,3 C 14,4 km/h (3 Bft)
17.05.2008 15:32 12,3 C 74 % 1005,5 hPa 0,0 l/m 17,1 km/h (3 Bft) N-NO 15 0 min 0 W/m 7,8 C 7,2 C 17,1 km/h (3 Bft)
17.05.2008 15:37 12,3 C 75 % 1005,5 hPa 0,0 l/m 14,8 km/h (3 Bft) N-NO 30 0 min 0 W/m 8,0 C 8,0 C 14,8 km/h (3 Bft)
17.05.2008 15:42 12,4 C 75 % 1005,5 hPa 0,0 l/m 13,7 km/h (3 Bft) N-NO 25 0 min 0 W/m 8,1 C 8,6 C 13,7 km/h (3 Bft)
17.05.2008 15:47 12,3 C 73 % 1005,5 hPa 0,0 l/m 18,6 km/h (3 Bft) N-NO 25 0 min 0 W/m 7,6 C 6,7 C 18,6 km/h (3 Bft)
17.05.2008 15:52 12,4 C 74 % 1005,5 hPa 0,0 l/m 15,9 km/h (3 Bft) N-NO 30 0 min 0 W/m 7,9 C 7,7 C 15,9 km/h (3 Bft)
17.05.2008 15:57 12,4 C 73 % 1005,5 hPa 0,0 l/m 16,9 km/h (3 Bft) N-NO 30 0 min 0 W/m 7,7 C 7,4 C 16,9 km/h (3 Bft)
17.05.2008 16:02 12,5 C 73 % 1005,5 hPa 0,0 l/m 17,2 km/h (3 Bft) N-NO 25 0 min 0 W/m 7,8 C 7,4 C 17,2 km/h (3 Bft)
17.05.2008 16:07 12,5 C 73 % 1005,5 hPa 0,0 l/m 14,5 km/h (3 Bft) N-NO 25 0 min 0 W/m 7,8 C 8,4 C 14,5 km/h (3 Bft)
17.05.2008 16:12 12,6 C 74 % 1005,5 hPa 0,0 l/m 15,2 km/h (3 Bft) N-NO 20 0 min 0 W/m 8,1 C 8,2 C 15,2 km/h (3 Bft)
17.05.2008 16:17 12,4 C 73 % 1005,5 hPa 0,0 l/m 18,8 km/h (3 Bft) N-NO 20 0 min 0 W/m 7,7 C 6,7 C 18,8 km/h (3 Bft)
17.05.2008 16:22 12,4 C 73 % 1005,5 hPa 0,0 l/m 16,1 km/h (3 Bft) N-NO 30 0 min 0 W/m 7,7 C 7,6 C 16,1 km/h (3 Bft)
17.05.2008 16:27 12,4 C 73 % 1005,5 hPa 0,0 l/m 14,6 km/h (3 Bft) N-NO 20 0 min 0 W/m 7,7 C 8,2 C 14,6 km/h (3 Bft)
17.05.2008 16:32 12,4 C 71 % 1005,5 hPa 0,0 l/m 19,1 km/h (3 Bft) N-NO 25 0 min 0 W/m 7,3 C 6,7 C 19,1 km/h (3 Bft)
17.05.2008 16:37 12,4 C 71 % 1005,5 hPa 0,0 l/m 20,0 km/h (4 Bft) N-NO 20 0 min 0 W/m 7,3 C 6,4 C 20,0 km/h (4 Bft)
17.05.2008 16:42 12,4 C 71 % 1005,5 hPa 0,0 l/m 22,7 km/h (4 Bft) N-NO 25 0 min 0 W/m 7,3 C 5,6 C 22,7 km/h (4 Bft)
17.05.2008 16:46 12,4 C 70 % 1005,5 hPa 0,0 l/m 18,5 km/h (3 Bft) N 10 0 min 0 W/m 7,1 C 6,8 C 18,5 km/h (3 Bft)
17.05.2008 16:52 12,6 C 69 % 1005,5 hPa 0,0 l/m 16,5 km/h (3 Bft) N-NO 15 0 min 0 W/m 7,1 C 7,7 C 16,5 km/h (3 Bft)
17.05.2008 16:57 12,6 C 69 % 1005,5 hPa 0,0 l/m 20,9 km/h (4 Bft) N-NO 25 0 min 0 W/m 7,1 C 6,4 C 20,9 km/h (4 Bft)
17.05.2008 17:02 12,7 C 71 % 1005,5 hPa 0,0 l/m 15,8 km/h (3 Bft) N-NO 25 0 min 0 W/m 7,6 C 8,1 C 15,8 km/h (3 Bft)
17.05.2008 17:07 12,8 C 70 % 1005,5 hPa 0,0 l/m 15,8 km/h (3 Bft) NO 35 0 min 0 W/m 7,5 C 8,2 C 15,8 km/h (3 Bft)
17.05.2008 17:11 12,8 C 69 % 1005,5 hPa 0,0 l/m 20,8 km/h (4 Bft) N-NO 30 0 min 0 W/m 7,3 C 6,7 C 20,8 km/h (4 Bft)
17.05.2008 17:17 12,8 C 69 % 1005,5 hPa 0,0 l/m 17,4 km/h (3 Bft) N-NO 20 0 min 0 W/m 7,3 C 7,7 C 17,4 km/h (3 Bft)
17.05.2008 17:22 12,7 C 69 % 1005,5 hPa 0,0 l/m 7,8 km/h (2 Bft) N-NO 30 0 min 0 W/m 7,2 C 11,8 C 7,8 km/h (2 Bft)
17.05.2008 17:27 12,7 C 70 % 1005,5 hPa 0,0 l/m 13,6 km/h (3 Bft) N-NO 30 0 min 0 W/m 7,4 C 8,9 C 13,6 km/h (3 Bft)
17.05.2008 17:32 12,7 C 70 % 1005,5 hPa 0,0 l/m 13,5 km/h (3 Bft) N-NO 30 0 min 0 W/m 7,4 C 9,0 C 13,5 km/h (3 Bft)
17.05.2008 17:37 12,7 C 70 % 1005,5 hPa 0,0 l/m 11,8 km/h (2 Bft) N-NO 25 0 min 0 W/m 7,4 C 9,7 C 11,8 km/h (2 Bft)
17.05.2008 17:42 12,6 C 69 % 1005,5 hPa 0,0 l/m 12,8 km/h (3 Bft) NO 35 0 min 0 W/m 7,1 C 9,2 C 12,8 km/h (3 Bft)
17.05.2008 17:47 12,6 C 69 % 1005,5 hPa 0,0 l/m 12,9 km/h (3 Bft) N 10 0 min 0 W/m 7,1 C 9,1 C 12,9 km/h (3 Bft)
17.05.2008 17:52 12,5 C 69 % 1005,5 hPa 0,0 l/m 10,9 km/h (2 Bft) N-NO 30 0 min 0 W/m 7,0 C 9,9 C 10,9 km/h (2 Bft)
17.05.2008 17:57 12,4 C 69 % 1005,5 hPa 0,0 l/m 11,8 km/h (2 Bft) NO 35 0 min 0 W/m 6,9 C 9,4 C 11,8 km/h (2 Bft)
17.05.2008 18:01 12,3 C 69 % 1005,5 hPa 0,0 l/m 17,0 km/h (3 Bft) NO 35 0 min 0 W/m 6,8 C 7,2 C 17,0 km/h (3 Bft)
17.05.2008 18:07 12,0 C 68 % 1005,5 hPa 0,0 l/m 16,0 km/h (3 Bft) N-NO 25 0 min 0 W/m 6,3 C 7,2 C 16,0 km/h (3 Bft)
17.05.2008 18:12 12,0 C 69 % 1005,5 hPa 0,0 l/m 15,1 km/h (3 Bft) N-NO 25 0 min 0 W/m 6,5 C 7,5 C 15,1 km/h (3 Bft)
17.05.2008 18:17 12,0 C 69 % 1005,5 hPa 0,0 l/m 13,1 km/h (3 Bft) N-NO 20 0 min 0 W/m 6,5 C 8,3 C 13,1 km/h (3 Bft)
17.05.2008 18:22 12,0 C 70 % 1005,5 hPa 0,0 l/m 14,9 km/h (3 Bft) N-NO 25 0 min 0 W/m 6,7 C 7,6 C 14,9 km/h (3 Bft)
17.05.2008 18:26 11,8 C 69 % 1005,5 hPa 0,0 l/m 13,1 km/h (3 Bft) N-NO 30 0 min 0 W/m 6,3 C 8,1 C 13,1 km/h (3 Bft)
17.05.2008 18:32 11,7 C 69 % 1005,5 hPa 0,0 l/m 16,5 km/h (3 Bft) N-NO 20 0 min 0 W/m 6,2 C 6,6 C 16,5 km/h (3 Bft)
17.05.2008 18:37 11,6 C 70 % 1005,5 hPa 0,0 l/m 15,1 km/h (3 Bft) N-NO 25 0 min 0 W/m 6,3 C 7,0 C 15,1 km/h (3 Bft)
17.05.2008 18:42 11,6 C 70 % 1005,5 hPa 0,0 l/m 17,0 km/h (3 Bft) N-NO 15 0 min 0 W/m 6,3 C 6,3 C 17,0 km/h (3 Bft)
17.05.2008 18:47 11,6 C 70 % 1005,5 hPa 0,0 l/m 17,3 km/h (3 Bft) N-NO 20 0 min 0 W/m 6,3 C 6,2 C 17,3 km/h (3 Bft)
17.05.2008 18:52 11,6 C 69 % 1005,5 hPa 0,0 l/m 17,8 km/h (3 Bft) N-NO 30 0 min 0 W/m 6,1 C 6,1 C 17,8 km/h (3 Bft)
17.05.2008 18:57 11,6 C 69 % 1005,5 hPa 0,0 l/m 16,6 km/h (3 Bft) N 360 0 min 0 W/m 6,1 C 6,5 C 16,6 km/h (3 Bft)
17.05.2008 19:02 11,6 C 70 % 1005,5 hPa 0,0 l/m 16,7 km/h (3 Bft) N-NO 25 0 min 0 W/m 6,3 C 6,4 C 16,7 km/h (3 Bft)
17.05.2008 19:07 11,6 C 70 % 1005,5 hPa 0,0 l/m 10,1 km/h (2 Bft) N-NO 15 0 min 0 W/m 6,3 C 9,3 C 10,1 km/h (2 Bft)
17.05.2008 19:12 11,7 C 69 % 1005,5 hPa 0,0 l/m 17,1 km/h (3 Bft) NO 55 0 min 0 W/m 6,2 C 6,4 C 17,1 km/h (3 Bft)
17.05.2008 19:17 11,6 C 70 % 1005,5 hPa 0,0 l/m 14,4 km/h (3 Bft) N-NO 20 0 min 0 W/m 6,3 C 7,3 C 14,4 km/h (3 Bft)
17.05.2008 19:22 11,7 C 70 % 1005,5 hPa 0,0 l/m 11,7 km/h (2 Bft) N-NO 25 0 min 0 W/m 6,4 C 8,6 C 11,7 km/h (2 Bft)
17.05.2008 19:27 11,6 C 69 % 1005,5 hPa 0,0 l/m 18,0 km/h (3 Bft) N 350 0 min 0 W/m 6,1 C 6,0 C 18,0 km/h (3 Bft)
17.05.2008 19:32 11,6 C 69 % 1005,5 hPa 0,0 l/m 17,0 km/h (3 Bft) N-NO 15 0 min 0 W/m 6,1 C 6,3 C 17,0 km/h (3 Bft)
17.05.2008 19:36 11,5 C 70 % 1005,5 hPa 0,0 l/m 14,0 km/h (3 Bft) N-NO 20 0 min 0 W/m 6,2 C 7,4 C 14,0 km/h (3 Bft)
17.05.2008 19:42 11,5 C 69 % 1005,5 hPa 0,0 l/m 19,0 km/h (3 Bft) N-NO 15 0 min 0 W/m 6,0 C 5,5 C 19,0 km/h (3 Bft)
17.05.2008 19:47 11,5 C 69 % 1005,5 hPa 0,0 l/m 20,5 km/h (4 Bft) N-NO 25 0 min 0 W/m 6,0 C 5,1 C 20,5 km/h (4 Bft)
17.05.2008 19:52 11,5 C 69 % 1005,5 hPa 0,0 l/m 24,1 km/h (4 Bft) N-NO 15 0 min 0 W/m 6,0 C 4,1 C 24,1 km/h (4 Bft)
17.05.2008 19:57 11,5 C 69 % 1005,5 hPa 0,0 l/m 22,2 km/h (4 Bft) N 5 0 min 0 W/m 6,0 C 4,6 C 22,2 km/h (4 Bft)
17.05.2008 20:02 11,4 C 70 % 1005,5 hPa 0,0 l/m 18,8 km/h (3 Bft) N 10 0 min 0 W/m 6,1 C 5,5 C 18,8 km/h (3 Bft)
17.05.2008 20:07 11,3 C 70 % 1005,5 hPa 0,0 l/m 23,2 km/h (4 Bft) N 5 0 min 0 W/m 6,0 C 4,1 C 23,2 km/h (4 Bft)
17.05.2008 20:12 11,3 C 70 % 1005,5 hPa 0,0 l/m 19,2 km/h (3 Bft) N-NO 25 0 min 0 W/m 6,0 C 5,2 C 19,2 km/h (3 Bft)
17.05.2008 20:17 11,3 C 69 % 1005,5 hPa 0,0 l/m 21,0 km/h (4 Bft) N-NO 15 0 min 0 W/m 5,8 C 4,7 C 21,0 km/h (4 Bft)
17.05.2008 20:22 11,3 C 69 % 1005,5 hPa 0,0 l/m 21,0 km/h (4 Bft) N-NO 15 0 min 0 W/m 5,8 C 4,7 C 21,0 km/h (4 Bft)
17.05.2008 20:27 11,3 C 69 % 1005,5 hPa 0,0 l/m 20,5 km/h (4 Bft) N 5 0 min 0 W/m 5,8 C 4,8 C 20,5 km/h (4 Bft)
17.05.2008 20:32 11,3 C 70 % 1005,5 hPa 0,0 l/m 18,8 km/h (3 Bft) N-NO 15 0 min 0 W/m 6,0 C 5,3 C 18,8 km/h (3 Bft)
17.05.2008 20:37 11,4 C 69 % 1005,5 hPa 0,0 l/m 22,9 km/h (4 Bft) N-NO 20 0 min 0 W/m 5,9 C 4,3 C 22,9 km/h (4 Bft)
17.05.2008 20:41 11,4 C 69 % 1005,5 hPa 0,0 l/m 23,5 km/h (4 Bft) N 10 0 min 0 W/m 5,9 C 4,1 C 23,5 km/h (4 Bft)
17.05.2008 20:47 11,4 C 69 % 1005,5 hPa 0,0 l/m 22,5 km/h (4 Bft) N 5 0 min 0 W/m 5,9 C 4,4 C 22,5 km/h (4 Bft)
17.05.2008 20:52 11,3 C 68 % 1005,5 hPa 0,0 l/m 25,5 km/h (4 Bft) N 5 0 min 0 W/m 5,6 C 3,5 C 25,5 km/h (4 Bft)
17.05.2008 20:57 11,3 C 69 % 1005,5 hPa 0,0 l/m 21,3 km/h (4 Bft) N 360 0 min 0 W/m 5,8 C 4,6 C 21,3 km/h (4 Bft)
17.05.2008 21:02 11,2 C 69 % 1005,5 hPa 0,0 l/m 20,5 km/h (4 Bft) N-NO 15 0 min 0 W/m 5,7 C 4,7 C 20,5 km/h (4 Bft)
17.05.2008 21:07 11,2 C 69 % 1005,5 hPa 0,0 l/m 15,7 km/h (3 Bft) N-NO 15 0 min 0 W/m 5,7 C 6,3 C 15,7 km/h (3 Bft)
17.05.2008 21:12 11,2 C 69 % 1005,5 hPa 0,0 l/m 17,3 km/h (3 Bft) N 10 0 min 0 W/m 5,7 C 5,7 C 17,3 km/h (3 Bft)
17.05.2008 21:17 11,2 C 69 % 1005,5 hPa 0,0 l/m 20,8 km/h (4 Bft) N-NO 20 0 min 0 W/m 5,7 C 4,6 C 20,8 km/h (4 Bft)
17.05.2008 21:22 11,2 C 69 % 1005,5 hPa 0,0 l/m 20,6 km/h (4 Bft) N 5 0 min 0 W/m 5,7 C 4,7 C 20,6 km/h (4 Bft)
17.05.2008 21:27 11,2 C 68 % 1005,5 hPa 0,0 l/m 20,4 km/h (4 Bft) N-NO 30 0 min 0 W/m 5,5 C 4,7 C 20,4 km/h (4 Bft)
17.05.2008 21:32 11,1 C 68 % 1006,5 hPa 0,0 l/m 18,0 km/h (3 Bft) N 360 0 min 0 W/m 5,4 C 5,4 C 18,0 km/h (3 Bft)
17.05.2008 21:37 11,2 C 68 % 1006,5 hPa 0,0 l/m 22,1 km/h (4 Bft) N-NO 15 0 min 0 W/m 5,5 C 4,2 C 22,1 km/h (4 Bft)
17.05.2008 21:42 11,1 C 68 % 1006,5 hPa 0,0 l/m 21,9 km/h (4 Bft) N 10 0 min 0 W/m 5,4 C 4,1 C 21,9 km/h (4 Bft)
17.05.2008 21:46 11,1 C 68 % 1006,5 hPa 0,0 l/m 23,0 km/h (4 Bft) N 10 0 min 0 W/m 5,4 C 3,8 C 23,0 km/h (4 Bft)
17.05.2008 21:52 11,2 C 68 % 1006,5 hPa 0,0 l/m 23,2 km/h (4 Bft) N-NO 20 0 min 0 W/m 5,5 C 3,9 C 23,2 km/h (4 Bft)
17.05.2008 21:57 11,1 C 68 % 1006,5 hPa 0,0 l/m 23,3 km/h (4 Bft) N-NO 20 0 min 0 W/m 5,4 C 3,8 C 23,3 km/h (4 Bft)
17.05.2008 22:02 11,1 C 68 % 1006,5 hPa 0,0 l/m 20,1 km/h (4 Bft) N-NO 30 0 min 0 W/m 5,4 C 4,7 C 20,1 km/h (4 Bft)
17.05.2008 22:07 11,1 C 68 % 1006,5 hPa 0,0 l/m 26,8 km/h (4 Bft) N-NO 15 0 min 0 W/m 5,4 C 2,9 C 26,8 km/h (4 Bft)
17.05.2008 22:12 11,1 C 68 % 1006,5 hPa 0,0 l/m 24,5 km/h (4 Bft) N 10 0 min 0 W/m 5,4 C 3,4 C 24,5 km/h (4 Bft)
17.05.2008 22:17 11,1 C 67 % 1006,5 hPa 0,0 l/m 26,9 km/h (4 Bft) N-NO 30 0 min 0 W/m 5,2 C 2,9 C 26,9 km/h (4 Bft)
17.05.2008 22:22 11,1 C 67 % 1006,5 hPa 0,0 l/m 26,9 km/h (4 Bft) N-NO 20 0 min 0 W/m 5,2 C 2,9 C 26,9 km/h (4 Bft)
17.05.2008 22:27 11,1 C 67 % 1006,5 hPa 0,0 l/m 26,1 km/h (4 Bft) N 10 0 min 0 W/m 5,2 C 3,1 C 26,1 km/h (4 Bft)
17.05.2008 22:32 11,1 C 67 % 1006,5 hPa 0,0 l/m 22,5 km/h (4 Bft) N 10 0 min 0 W/m 5,2 C 4,0 C 22,5 km/h (4 Bft)
17.05.2008 22:37 11,1 C 67 % 1006,5 hPa 0,0 l/m 24,4 km/h (4 Bft) N 5 0 min 0 W/m 5,2 C 3,5 C 24,4 km/h (4 Bft)
17.05.2008 22:42 11,1 C 67 % 1006,5 hPa 0,0 l/m 17,6 km/h (3 Bft) N-NO 30 0 min 0 W/m 5,2 C 5,5 C 17,6 km/h (3 Bft)
17.05.2008 22:46 11,0 C 67 % 1006,5 hPa 0,0 l/m 24,6 km/h (4 Bft) N 360 0 min 0 W/m 5,1 C 3,3 C 24,6 km/h (4 Bft)
17.05.2008 22:52 11,0 C 68 % 1006,5 hPa 0,0 l/m 21,5 km/h (4 Bft) N 10 0 min 0 W/m 5,3 C 4,1 C 21,5 km/h (4 Bft)
17.05.2008 22:57 11,0 C 67 % 1006,5 hPa 0,0 l/m 25,0 km/h (4 Bft) N 5 0 min 0 W/m 5,1 C 3,2 C 25,0 km/h (4 Bft)
17.05.2008 23:02 11,0 C 66 % 1006,5 hPa 0,0 l/m 21,3 km/h (4 Bft) N-NO 15 0 min 0 W/m 4,9 C 4,2 C 21,3 km/h (4 Bft)
17.05.2008 23:06 10,9 C 66 % 1006,5 hPa 0,0 l/m 27,6 km/h (5 Bft) N 5 0 min 0 W/m 4,8 C 2,4 C 27,6 km/h (5 Bft)
17.05.2008 23:12 10,8 C 64 % 1006,5 hPa 0,0 l/m 22,8 km/h (4 Bft) N-NO 30 0 min 0 W/m 4,3 C 3,5 C 22,8 km/h (4 Bft)
17.05.2008 23:17 10,8 C 63 % 1006,5 hPa 0,0 l/m 25,0 km/h (4 Bft) N 10 0 min 0 W/m 4,0 C 2,9 C 25,0 km/h (4 Bft)
17.05.2008 23:22 10,8 C 62 % 1006,5 hPa 0,0 l/m 21,2 km/h (4 Bft) N-NO 25 0 min 0 W/m 3,8 C 4,0 C 21,2 km/h (4 Bft)
17.05.2008 23:27 10,8 C 63 % 1006,5 hPa 0,0 l/m 22,9 km/h (4 Bft) N-NO 15 0 min 0 W/m 4,0 C 3,5 C 22,9 km/h (4 Bft)
17.05.2008 23:32 10,8 C 64 % 1006,5 hPa 0,0 l/m 20,0 km/h (4 Bft) N-NO 20 0 min 0 W/m 4,3 C 4,3 C 20,0 km/h (4 Bft)
17.05.2008 23:37 10,8 C 65 % 1007,5 hPa 0,0 l/m 21,7 km/h (4 Bft) N 10 0 min 0 W/m 4,5 C 3,8 C 21,7 km/h (4 Bft)
17.05.2008 23:42 10,8 C 66 % 1007,5 hPa 0,0 l/m 24,8 km/h (4 Bft) N 10 0 min 0 W/m 4,7 C 3,0 C 24,8 km/h (4 Bft)
17.05.2008 23:47 10,8 C 66 % 1007,5 hPa 0,0 l/m 21,5 km/h (4 Bft) N 10 0 min 0 W/m 4,7 C 3,9 C 21,5 km/h (4 Bft)
17.05.2008 23:51 10,8 C 67 % 1007,5 hPa 0,0 l/m 21,6 km/h (4 Bft) N 10 0 min 0 W/m 4,9 C 3,8 C 21,6 km/h (4 Bft)
17.05.2008 23:57 10,8 C 67 % 1007,5 hPa 0,0 l/m 19,5 km/h (3 Bft) N 10 0 min 0 W/m 4,9 C 4,5 C 19,5 km/h (3 Bft)
_ Min-Zeit 23:12 23:22 06:51 - 04:52 - - - - 23:22 23:06 04:52
Minimum _ 10,8 C 62 % 1004,5 hPa - 0,0 km/h (0 Bft) - - - - 3,8 C 2,4 C 0,0 km/h (0 Bft)
_ Max-Zeit 08:22 12:27 23:37 11:57 23:06 - - 00:02 00:02 08:22 08:22 23:06
Maximum _ 14,6 C 79 % 1007,5 hPa 0,3 l/m 27,6 km/h
N (5 Bft)
- - 0 min 0 W/m 10,2 C 14,6 C 27,6 km/h
N (5 Bft)
Durchschnitt _ 12,6 C 73 % 1005,6 hPa #1,5 l/m 12,6 km/h (3 Bft) N-NO - #0 min. 0 W/m 7,8 C 9,3 C 12,6 km/h (3 Bft)
copyright by Holger Just